createdAt,value
2023-02-16T00:00:34.242Z,64.47
2023-02-16T00:02:01.692Z,65.03
2023-02-16T00:02:49.342Z,66.07
2023-02-16T00:03:36.758Z,63.70
2023-02-16T00:04:22.932Z,65.40
2023-02-16T00:05:30.786Z,66.33
2023-02-16T00:06:14.578Z,66.50
2023-02-16T00:06:54.546Z,67.37
2023-02-16T00:09:50.149Z,65.20
2023-02-16T00:10:35.647Z,64.13
2023-02-16T00:11:39.000Z,67.83
2023-02-16T00:12:39.856Z,66.17
2023-02-16T00:14:39.078Z,67.03
2023-02-16T00:15:17.959Z,66.07
2023-02-16T00:15:58.730Z,63.47
2023-02-16T00:16:39.041Z,66.10
2023-02-16T00:17:26.083Z,64.73
2023-02-16T00:18:08.001Z,64.40
2023-02-16T00:18:55.007Z,64.53
2023-02-16T00:19:34.929Z,64.20
2023-02-16T00:20:17.564Z,64.50
2023-02-16T00:20:56.958Z,65.90
2023-02-16T00:21:36.629Z,66.27
2023-02-16T00:23:46.788Z,62.73
2023-02-16T00:25:28.514Z,61.47
2023-02-16T00:26:07.828Z,63.27
2023-02-16T00:26:49.017Z,61.63
2023-02-16T00:27:29.239Z,61.93
2023-02-16T00:28:20.974Z,61.83
2023-02-16T00:29:00.878Z,63.70
2023-02-16T00:29:42.170Z,61.53
2023-02-16T00:30:22.749Z,62.40
2023-02-16T00:31:42.987Z,62.83
2023-02-16T00:32:23.395Z,65.13
2023-02-16T00:33:48.540Z,61.10
2023-02-16T00:34:37.435Z,61.37
2023-02-16T00:35:19.270Z,64.23
2023-02-16T00:35:59.226Z,64.00
2023-02-16T00:36:39.323Z,64.20
2023-02-16T00:37:42.852Z,61.87
2023-02-16T00:38:59.398Z,63.63
2023-02-16T00:40:18.844Z,65.83
2023-02-16T00:40:59.204Z,64.50
2023-02-16T00:41:54.086Z,63.67
2023-02-16T00:42:34.128Z,62.70
2023-02-16T00:43:38.256Z,62.30
2023-02-16T00:44:54.865Z,65.40
2023-02-16T00:45:38.173Z,65.90
2023-02-16T00:47:42.191Z,62.70
2023-02-16T00:48:21.767Z,62.37
2023-02-16T00:49:01.421Z,64.70
2023-02-16T00:49:41.298Z,64.90
2023-02-16T00:50:30.877Z,63.00
2023-02-16T00:51:25.211Z,63.10
2023-02-16T00:53:47.221Z,65.63
2023-02-16T00:54:51.026Z,65.10
2023-02-16T00:56:19.622Z,64.17
2023-02-16T00:57:49.528Z,65.67
2023-02-16T00:59:24.509Z,66.63
2023-02-16T01:00:47.827Z,65.77
2023-02-16T01:01:32.401Z,66.93
2023-02-16T01:02:14.983Z,66.13
2023-02-16T01:02:58.593Z,65.70
2023-02-16T01:03:38.660Z,65.83
2023-02-16T01:04:23.883Z,64.47
2023-02-16T01:05:03.447Z,64.37
2023-02-16T01:06:15.240Z,65.07
2023-02-16T01:07:12.972Z,64.07
2023-02-16T01:08:49.004Z,64.13
2023-02-16T01:09:50.029Z,62.77
2023-02-16T01:10:48.862Z,62.60
2023-02-16T01:12:15.068Z,61.93
2023-02-16T01:12:54.014Z,62.17
2023-02-16T01:13:48.618Z,63.60
2023-02-16T01:14:31.160Z,63.07
2023-02-16T01:15:16.037Z,61.80
2023-02-16T01:15:57.117Z,61.70
2023-02-16T01:16:45.034Z,63.23
2023-02-16T01:17:33.374Z,63.50
2023-02-16T01:18:16.013Z,63.53
2023-02-16T01:18:56.614Z,62.67
2023-02-16T01:19:46.115Z,63.07
2023-02-16T01:21:04.542Z,63.67
2023-02-16T01:21:54.056Z,64.93
2023-02-16T01:22:34.299Z,62.67
2023-02-16T01:23:21.100Z,61.80
2023-02-16T01:24:01.204Z,61.97
2023-02-16T01:24:41.291Z,61.50
2023-02-16T01:25:20.373Z,61.77
2023-02-16T01:25:59.258Z,63.10
2023-02-16T01:26:48.440Z,63.33
2023-02-16T01:27:38.448Z,59.33
2023-02-16T01:28:24.034Z,59.27
2023-02-16T01:29:04.342Z,59.37
2023-02-16T01:29:43.465Z,59.17
2023-02-16T01:30:24.347Z,59.70
2023-02-16T01:31:03.793Z,60.53
2023-02-16T01:32:35.044Z,61.20
2023-02-16T01:33:14.513Z,60.20
2023-02-16T01:33:54.315Z,59.77
2023-02-16T01:34:34.260Z,60.73
2023-02-16T01:35:13.590Z,60.97
2023-02-16T01:35:57.055Z,57.77
2023-02-16T01:37:39.822Z,60.97
2023-02-16T01:38:21.963Z,60.57
2023-02-16T01:39:03.377Z,58.37
2023-02-16T01:41:02.256Z,57.53
2023-02-16T01:42:13.522Z,56.97
2023-02-16T01:43:31.016Z,56.77
2023-02-16T01:44:21.581Z,55.13
2023-02-16T01:46:12.132Z,58.43
2023-02-16T01:46:52.093Z,57.30
2023-02-16T01:48:10.686Z,59.00
2023-02-16T01:51:14.198Z,57.20
2023-02-16T01:51:53.026Z,54.87
2023-02-16T01:52:42.094Z,56.93
2023-02-16T01:54:17.346Z,56.67
2023-02-16T01:55:03.132Z,57.90
2023-02-16T01:55:52.109Z,58.00
2023-02-16T01:56:54.830Z,57.93
2023-02-16T01:57:34.058Z,57.47
2023-02-16T01:58:47.253Z,55.90
2023-02-16T02:00:04.913Z,58.03
2023-02-16T02:00:53.007Z,56.03
2023-02-16T02:01:31.927Z,54.83
2023-02-16T02:02:37.397Z,54.53
2023-02-16T02:04:40.915Z,53.53
2023-02-16T02:06:01.484Z,53.57
2023-02-16T02:07:04.926Z,55.83
2023-02-16T02:07:54.786Z,58.13
2023-02-16T02:08:39.214Z,54.20
2023-02-16T02:09:31.544Z,54.10
2023-02-16T02:10:21.888Z,52.30
2023-02-16T02:11:13.153Z,54.20
2023-02-16T02:12:03.731Z,53.23
2023-02-16T02:13:30.857Z,53.70
2023-02-16T02:14:19.308Z,53.43
2023-02-16T02:14:58.250Z,53.13
2023-02-16T02:15:38.284Z,52.33
2023-02-16T02:16:24.353Z,51.60
2023-02-16T02:17:13.397Z,53.57
2023-02-16T02:17:53.270Z,54.10
2023-02-16T02:18:33.350Z,53.53
2023-02-16T02:19:20.158Z,52.63
2023-02-16T02:20:14.799Z,52.30
2023-02-16T02:21:39.364Z,53.03
2023-02-16T02:22:58.166Z,51.80
2023-02-16T02:23:37.863Z,54.07
2023-02-16T02:24:35.992Z,54.50
2023-02-16T02:25:49.076Z,53.60
2023-02-16T02:26:49.676Z,54.00
2023-02-16T02:27:38.416Z,52.87
2023-02-16T02:28:42.027Z,52.57
2023-02-16T02:29:39.000Z,54.40
2023-02-16T02:31:17.440Z,53.30
2023-02-16T02:32:33.539Z,54.47
2023-02-16T02:33:40.455Z,55.97
2023-02-16T02:34:34.306Z,55.03
2023-02-16T02:36:16.182Z,54.07
2023-02-16T02:38:01.318Z,55.23
2023-02-16T02:39:00.142Z,55.03
2023-02-16T02:39:56.423Z,54.40
2023-02-16T02:41:08.663Z,55.03
2023-02-16T02:42:06.962Z,54.10
2023-02-16T02:43:10.775Z,54.93
2023-02-16T02:44:04.454Z,56.20
2023-02-16T02:44:55.043Z,53.23
2023-02-16T02:45:40.709Z,55.17
2023-02-16T02:46:35.402Z,55.03
2023-02-16T02:47:15.568Z,52.83
2023-02-16T02:47:55.241Z,52.90
2023-02-16T02:48:35.621Z,52.83
2023-02-16T02:49:16.112Z,53.93
2023-02-16T02:49:56.819Z,54.67
2023-02-16T02:50:36.872Z,52.93
2023-02-16T02:51:30.499Z,52.50
2023-02-16T02:52:20.045Z,54.57
2023-02-16T02:53:03.724Z,54.57
2023-02-16T02:54:14.635Z,53.30
2023-02-16T02:55:13.093Z,53.47
2023-02-16T02:56:10.827Z,55.57
2023-02-16T02:57:26.943Z,55.67
2023-02-16T02:59:14.732Z,52.27
2023-02-16T03:00:27.399Z,53.33
2023-02-16T03:02:03.716Z,54.50
2023-02-16T03:03:44.303Z,54.90
2023-02-16T03:05:05.921Z,54.77
2023-02-16T03:05:44.864Z,54.73
2023-02-16T03:06:51.982Z,54.00
2023-02-16T03:08:15.658Z,54.73
2023-02-16T03:10:16.891Z,57.00
2023-02-16T03:10:55.897Z,57.87
2023-02-16T03:11:57.400Z,58.23
2023-02-16T03:12:46.614Z,55.07
2023-02-16T03:14:10.336Z,54.00
2023-02-16T03:14:56.518Z,55.00
2023-02-16T03:15:37.960Z,54.37
2023-02-16T03:16:25.877Z,54.47
2023-02-16T03:17:31.398Z,54.20
2023-02-16T03:18:33.414Z,55.33
2023-02-16T03:20:51.364Z,53.70
2023-02-16T03:21:51.853Z,53.47
2023-02-16T03:23:30.869Z,53.63
2023-02-16T03:25:08.422Z,52.77
2023-02-16T03:27:11.039Z,54.27
2023-02-16T03:28:53.426Z,53.90
2023-02-16T03:30:14.154Z,53.13
2023-02-16T03:31:36.624Z,51.63
2023-02-16T03:32:17.054Z,51.03
2023-02-16T03:32:57.370Z,52.60
2023-02-16T03:33:38.702Z,51.10
2023-02-16T03:34:21.023Z,51.50
2023-02-16T03:35:00.297Z,49.93
2023-02-16T03:35:39.973Z,49.60
2023-02-16T03:36:29.597Z,51.37
2023-02-16T03:37:54.240Z,51.13
2023-02-16T03:38:33.500Z,52.67
2023-02-16T03:39:13.612Z,51.90
2023-02-16T03:40:12.017Z,51.17
2023-02-16T03:40:52.418Z,49.17
2023-02-16T03:41:39.187Z,50.10
2023-02-16T03:42:20.106Z,52.33
2023-02-16T03:43:02.838Z,53.07
2023-02-16T03:43:42.422Z,53.40
2023-02-16T03:44:31.160Z,53.10
2023-02-16T03:45:10.303Z,53.23
2023-02-16T03:45:50.320Z,51.00
2023-02-16T03:46:32.654Z,53.00
2023-02-16T03:47:36.611Z,51.93
2023-02-16T03:49:05.916Z,52.57
2023-02-16T03:50:11.983Z,53.20
2023-02-16T03:51:15.986Z,50.77
2023-02-16T03:53:38.193Z,53.17
2023-02-16T03:54:18.042Z,52.57
2023-02-16T03:54:57.348Z,52.53
2023-02-16T03:55:47.575Z,52.67
2023-02-16T03:56:29.459Z,52.53
2023-02-16T03:57:09.504Z,52.67
2023-02-16T03:59:15.237Z,52.30
2023-02-16T04:00:18.976Z,53.73
2023-02-16T04:01:38.328Z,52.50
2023-02-16T04:02:20.489Z,52.43
2023-02-16T04:03:02.774Z,54.97
2023-02-16T04:05:12.208Z,54.53
2023-02-16T04:05:52.753Z,56.03
2023-02-16T04:07:19.151Z,54.97
2023-02-16T04:07:58.436Z,56.30
2023-02-16T04:08:38.353Z,57.07
2023-02-16T04:09:27.169Z,53.27
2023-02-16T04:10:07.848Z,52.43
2023-02-16T04:10:57.672Z,53.60
2023-02-16T04:11:45.929Z,54.03
2023-02-16T04:12:37.056Z,53.43
2023-02-16T04:13:57.302Z,57.13
2023-02-16T04:14:37.609Z,55.53
2023-02-16T04:15:20.325Z,54.97
2023-02-16T04:16:00.287Z,54.70
2023-02-16T04:16:39.389Z,54.67
2023-02-16T04:17:26.152Z,54.47
2023-02-16T04:18:08.656Z,55.73
2023-02-16T04:18:48.305Z,56.23
2023-02-16T04:19:30.762Z,53.80
2023-02-16T04:20:15.735Z,54.37
2023-02-16T04:20:55.263Z,56.63
2023-02-16T04:21:35.675Z,56.23
2023-02-16T04:23:22.162Z,56.43
2023-02-16T04:24:05.892Z,56.60
2023-02-16T04:24:58.204Z,56.30
2023-02-16T04:25:38.359Z,58.80
2023-02-16T04:26:21.569Z,57.73
2023-02-16T04:27:01.274Z,56.93
2023-02-16T04:27:40.651Z,56.80
2023-02-16T04:28:20.335Z,54.40
2023-02-16T04:29:07.131Z,57.73
2023-02-16T04:29:46.549Z,57.10
2023-02-16T04:30:28.747Z,54.07
2023-02-16T04:31:09.068Z,56.90
2023-02-16T04:31:48.779Z,57.47
2023-02-16T04:32:52.642Z,58.83
2023-02-16T04:34:32.248Z,56.33
2023-02-16T04:35:52.340Z,54.80
2023-02-16T04:36:34.496Z,57.87
2023-02-16T04:37:13.554Z,59.97
2023-02-16T04:37:53.389Z,60.00
2023-02-16T04:38:41.149Z,59.23
2023-02-16T04:39:30.149Z,58.40
2023-02-16T04:40:13.854Z,59.43
2023-02-16T04:40:53.289Z,59.73
2023-02-16T04:41:45.118Z,58.57
2023-02-16T04:42:24.445Z,58.17
2023-02-16T04:43:04.344Z,58.23
2023-02-16T04:43:45.041Z,58.10
2023-02-16T04:44:25.383Z,58.70
2023-02-16T04:46:26.429Z,59.33
2023-02-16T04:47:06.009Z,59.17
2023-02-16T04:47:45.347Z,61.27
2023-02-16T04:48:49.185Z,60.83
2023-02-16T04:49:38.143Z,60.17
2023-02-16T04:50:25.157Z,59.27
2023-02-16T04:51:05.543Z,59.17
2023-02-16T04:51:46.447Z,58.70
2023-02-16T04:54:08.644Z,61.60
2023-02-16T04:54:47.876Z,59.93
2023-02-16T04:55:31.068Z,57.93
2023-02-16T04:56:11.712Z,58.57
2023-02-16T04:56:51.347Z,61.00
2023-02-16T04:57:33.291Z,60.13
2023-02-16T04:58:16.486Z,61.17
2023-02-16T04:58:57.106Z,57.07
2023-02-16T04:59:46.247Z,57.93
2023-02-16T05:00:24.956Z,56.77
2023-02-16T05:01:05.759Z,58.57
2023-02-16T05:02:26.388Z,59.57
2023-02-16T05:03:06.372Z,61.50
2023-02-16T05:03:58.173Z,60.70
2023-02-16T05:04:37.708Z,60.37
2023-02-16T05:05:18.818Z,59.73
2023-02-16T05:06:53.437Z,59.03
2023-02-16T05:07:32.266Z,59.93
2023-02-16T05:08:12.381Z,62.53
2023-02-16T05:08:51.306Z,60.07
2023-02-16T05:09:30.563Z,59.27
2023-02-16T05:10:09.952Z,59.97
2023-02-16T05:11:10.857Z,59.67
2023-02-16T05:12:48.044Z,58.63
2023-02-16T05:14:45.122Z,61.07
2023-02-16T05:16:02.411Z,61.30
2023-02-16T05:16:43.188Z,59.93
2023-02-16T05:17:25.535Z,59.03
2023-02-16T05:18:05.659Z,57.20
2023-02-16T05:18:47.758Z,60.13
2023-02-16T05:19:27.410Z,61.80
2023-02-16T05:20:07.065Z,59.33
2023-02-16T05:21:29.385Z,58.73
2023-02-16T05:22:08.912Z,61.40
2023-02-16T05:22:49.333Z,59.67
2023-02-16T05:23:31.296Z,62.30
2023-02-16T05:24:18.228Z,61.27
2023-02-16T05:25:02.970Z,60.53
2023-02-16T05:25:42.302Z,61.67
2023-02-16T05:26:24.387Z,61.90
2023-02-16T05:27:07.516Z,62.47
2023-02-16T05:28:42.413Z,61.57
2023-02-16T05:30:02.577Z,60.83
2023-02-16T05:31:26.306Z,63.57
2023-02-16T05:32:43.317Z,62.97
2023-02-16T05:33:23.964Z,62.57
2023-02-16T05:34:42.023Z,61.70
2023-02-16T05:35:22.439Z,63.40
2023-02-16T05:36:02.574Z,62.30
2023-02-16T05:36:42.350Z,59.40
2023-02-16T05:37:21.399Z,61.83
2023-02-16T05:38:00.335Z,61.87
2023-02-16T05:38:39.485Z,61.70
2023-02-16T05:39:18.381Z,63.00
2023-02-16T05:40:05.403Z,64.53
2023-02-16T05:40:48.267Z,63.47
2023-02-16T05:41:28.294Z,63.93
2023-02-16T05:43:15.568Z,64.83
2023-02-16T05:43:58.098Z,66.23
2023-02-16T05:45:18.398Z,63.67
2023-02-16T05:45:58.452Z,62.97
2023-02-16T05:46:41.405Z,65.93
2023-02-16T05:47:20.342Z,66.10
2023-02-16T05:48:02.312Z,65.13
2023-02-16T05:48:42.821Z,66.07
2023-02-16T05:49:22.009Z,64.77
2023-02-16T05:50:53.015Z,64.87
2023-02-16T05:51:46.454Z,63.67
2023-02-16T05:53:05.762Z,65.50
2023-02-16T05:54:23.320Z,67.73
2023-02-16T05:55:04.781Z,65.67
2023-02-16T05:55:47.326Z,66.17
2023-02-16T05:56:26.432Z,67.53
2023-02-16T05:57:10.343Z,66.93
2023-02-16T05:57:49.312Z,67.17
2023-02-16T05:58:53.844Z,66.67
2023-02-16T05:59:34.006Z,67.90
2023-02-16T06:00:15.404Z,66.47
2023-02-16T06:00:54.074Z,65.33
2023-02-16T06:01:33.332Z,64.50
2023-02-16T06:02:25.351Z,66.70
2023-02-16T06:03:29.048Z,67.70
2023-02-16T06:04:47.970Z,68.00
2023-02-16T06:05:31.523Z,67.03
2023-02-16T06:08:50.526Z,67.37
2023-02-16T06:09:31.396Z,65.53
2023-02-16T06:10:13.379Z,65.23
2023-02-16T06:10:54.145Z,66.30
2023-02-16T06:13:27.366Z,65.90
2023-02-16T06:15:22.105Z,68.27
2023-02-16T06:16:02.061Z,67.80
2023-02-16T06:16:44.496Z,68.77
2023-02-16T06:22:29.420Z,65.90
2023-02-16T06:23:11.619Z,66.03
2023-02-16T06:23:53.950Z,65.43
2023-02-16T06:24:44.572Z,67.03
2023-02-16T06:25:26.327Z,65.33
2023-02-16T06:26:06.304Z,64.77
2023-02-16T06:26:46.801Z,65.17
2023-02-16T06:28:05.427Z,65.57
2023-02-16T06:28:44.562Z,64.90
2023-02-16T06:31:25.460Z,68.27
2023-02-16T06:32:05.853Z,65.20
2023-02-16T06:32:48.069Z,65.47
2023-02-16T06:33:27.358Z,62.10
2023-02-16T06:34:09.085Z,65.10
2023-02-16T06:34:49.565Z,66.40
2023-02-16T06:35:30.037Z,65.57
2023-02-16T06:36:09.602Z,64.93
2023-02-16T06:36:49.267Z,65.50
2023-02-16T06:38:30.640Z,64.17
2023-02-16T06:39:10.465Z,65.00
2023-02-16T06:41:59.364Z,67.17
2023-02-16T06:44:04.564Z,67.17
2023-02-16T06:44:44.965Z,67.20
2023-02-16T06:45:37.176Z,65.50
2023-02-16T06:46:17.836Z,66.77
2023-02-16T06:46:58.545Z,64.77
2023-02-16T06:48:06.816Z,65.40
2023-02-16T06:49:48.649Z,65.33
2023-02-16T06:50:32.887Z,65.33
2023-02-16T06:51:37.193Z,68.93
2023-02-16T06:53:46.453Z,65.23
2023-02-16T06:54:29.394Z,65.67
2023-02-16T06:56:10.698Z,65.03
2023-02-16T06:56:54.852Z,65.00
2023-02-16T06:57:37.525Z,65.53
2023-02-16T06:58:17.477Z,66.43
2023-02-16T06:59:01.306Z,67.13
2023-02-16T07:00:41.668Z,67.07
2023-02-16T07:02:44.803Z,68.60
2023-02-16T07:03:35.659Z,66.67
2023-02-16T07:04:18.112Z,68.87
2023-02-16T07:05:11.381Z,68.03
2023-02-16T07:05:53.560Z,67.67
2023-02-16T07:06:33.545Z,67.60
2023-02-16T07:07:15.580Z,67.00
2023-02-16T07:07:57.455Z,65.93
2023-02-16T07:09:01.161Z,63.30
2023-02-16T07:10:50.029Z,65.07
2023-02-16T07:12:09.386Z,63.17
2023-02-16T07:13:17.199Z,63.93
2023-02-16T07:14:06.232Z,64.03
2023-02-16T07:14:48.471Z,64.13
2023-02-16T07:16:19.711Z,62.83
2023-02-16T07:17:39.537Z,61.07
2023-02-16T07:18:28.223Z,60.30
2023-02-16T07:19:17.257Z,60.50
2023-02-16T07:19:59.890Z,59.33
2023-02-16T07:20:40.439Z,58.53
2023-02-16T07:21:20.445Z,59.03
2023-02-16T07:22:12.565Z,61.73
2023-02-16T07:23:16.567Z,60.67
2023-02-16T07:25:22.538Z,62.27
2023-02-16T07:26:04.794Z,60.83
2023-02-16T07:26:58.040Z,61.50
2023-02-16T07:27:40.399Z,61.60
2023-02-16T07:28:34.345Z,62.73
2023-02-16T07:29:14.613Z,63.07
2023-02-16T07:30:02.277Z,62.40
2023-02-16T07:31:08.104Z,60.90
2023-02-16T07:32:25.418Z,61.70
2023-02-16T07:33:15.167Z,60.07
2023-02-16T07:35:15.237Z,62.20
2023-02-16T07:36:18.999Z,65.30
2023-02-16T07:37:57.743Z,66.17
2023-02-16T07:39:14.656Z,65.27
2023-02-16T07:39:56.800Z,66.23
2023-02-16T07:40:49.250Z,66.27
2023-02-16T07:41:45.434Z,65.77
2023-02-16T07:42:24.525Z,66.77
2023-02-16T07:43:05.366Z,67.27
2023-02-16T07:43:44.447Z,65.83
2023-02-16T07:44:36.290Z,66.53
2023-02-16T07:45:45.973Z,68.73
2023-02-16T07:47:03.394Z,70.53
2023-02-16T07:47:42.794Z,70.87
2023-02-16T07:48:23.273Z,73.77
2023-02-16T07:49:07.882Z,74.37
2023-02-16T07:49:52.943Z,74.47
2023-02-16T07:50:33.561Z,73.40
2023-02-16T07:51:26.511Z,70.33
2023-02-16T07:52:18.430Z,72.03
2023-02-16T07:53:05.496Z,68.83
2023-02-16T07:54:02.350Z,67.93
2023-02-16T07:54:41.424Z,65.23
2023-02-16T07:55:45.803Z,66.33
2023-02-16T07:56:32.043Z,63.83
2023-02-16T07:57:27.792Z,64.33
2023-02-16T07:58:27.435Z,64.10
2023-02-16T07:59:32.045Z,65.33
2023-02-16T08:00:28.250Z,63.90
2023-02-16T08:01:10.730Z,63.83
2023-02-16T08:01:58.694Z,63.47
2023-02-16T08:02:40.457Z,65.03
2023-02-16T08:03:23.428Z,62.13
2023-02-16T08:04:03.223Z,63.23
2023-02-16T08:04:55.228Z,64.20
2023-02-16T08:05:49.555Z,62.83
2023-02-16T08:06:41.534Z,63.17
2023-02-16T08:07:22.000Z,61.33
2023-02-16T08:08:02.586Z,59.07
2023-02-16T08:09:21.485Z,58.57
2023-02-16T08:10:39.469Z,58.67
2023-02-16T08:11:24.131Z,58.83
2023-02-16T08:12:03.658Z,60.30
2023-02-16T08:12:50.578Z,61.83
2023-02-16T08:13:54.628Z,61.20
2023-02-16T08:16:08.230Z,61.40
2023-02-16T08:16:51.390Z,60.13
2023-02-16T08:18:24.378Z,62.03
2023-02-16T08:19:29.306Z,62.23
2023-02-16T08:21:14.563Z,60.20
2023-02-16T08:22:44.428Z,61.23
2023-02-16T08:23:21.069Z,58.87
2023-02-16T08:24:17.149Z,59.77
2023-02-16T08:24:57.394Z,61.33
2023-02-16T08:26:09.898Z,60.87
2023-02-16T08:27:35.828Z,61.37
2023-02-16T08:28:28.501Z,57.97
2023-02-16T08:29:12.722Z,58.13
2023-02-16T08:29:54.528Z,61.07
2023-02-16T08:30:35.095Z,61.87
2023-02-16T08:32:13.297Z,59.80
2023-02-16T08:32:54.075Z,60.63
2023-02-16T08:33:36.818Z,59.50
2023-02-16T08:34:19.010Z,61.30
2023-02-16T08:34:59.412Z,59.67
2023-02-16T08:35:39.864Z,59.13
2023-02-16T08:36:32.577Z,59.07
2023-02-16T08:37:14.482Z,58.57
2023-02-16T08:37:53.492Z,58.87
2023-02-16T08:38:43.438Z,59.27
2023-02-16T08:39:35.671Z,58.97
2023-02-16T08:40:18.955Z,58.97
2023-02-16T08:43:16.374Z,61.30
2023-02-16T08:45:56.394Z,59.07
2023-02-16T08:46:40.930Z,60.53
2023-02-16T08:47:21.774Z,59.63
2023-02-16T08:48:17.329Z,60.17
2023-02-16T08:49:08.822Z,57.83
2023-02-16T08:50:54.091Z,59.67
2023-02-16T08:52:52.419Z,59.17
2023-02-16T08:53:40.228Z,60.50
2023-02-16T08:54:30.723Z,58.73
2023-02-16T08:55:10.388Z,62.07
2023-02-16T08:55:56.832Z,60.67
2023-02-16T08:56:47.958Z,59.17
2023-02-16T08:57:26.538Z,60.53
2023-02-16T08:58:19.244Z,62.60
2023-02-16T08:58:59.178Z,61.90
2023-02-16T08:59:40.683Z,59.57
2023-02-16T09:00:38.729Z,60.93
2023-02-16T09:02:13.376Z,61.50
2023-02-16T09:02:56.237Z,61.00
2023-02-16T09:03:47.024Z,63.73
2023-02-16T09:04:29.982Z,60.93
2023-02-16T09:05:10.179Z,63.33
2023-02-16T09:06:44.698Z,61.73
2023-02-16T09:07:23.094Z,61.60
2023-02-16T09:08:03.478Z,61.17
2023-02-16T09:09:30.426Z,60.80
2023-02-16T09:10:09.719Z,61.33
2023-02-16T09:11:20.795Z,63.70
2023-02-16T09:14:29.801Z,61.77
2023-02-16T09:15:34.233Z,59.60
2023-02-16T09:17:03.697Z,62.73
2023-02-16T09:17:43.213Z,62.90
2023-02-16T09:18:23.148Z,61.77
2023-02-16T09:19:02.489Z,60.90
2023-02-16T09:19:43.646Z,60.97
2023-02-16T09:20:27.689Z,61.87
2023-02-16T09:21:23.634Z,58.60
2023-02-16T09:22:04.083Z,58.10
2023-02-16T09:22:49.449Z,60.40
2023-02-16T09:23:31.230Z,62.33
2023-02-16T09:24:27.975Z,61.27
2023-02-16T09:25:09.633Z,62.47
2023-02-16T09:25:48.402Z,61.10
2023-02-16T09:26:31.690Z,59.07
2023-02-16T09:27:11.710Z,60.13
2023-02-16T09:27:53.251Z,59.67
2023-02-16T09:28:32.992Z,61.47
2023-02-16T09:29:13.147Z,65.20
2023-02-16T09:29:52.652Z,62.07
2023-02-16T09:30:34.853Z,62.57
2023-02-16T09:31:39.792Z,62.20
2023-02-16T09:34:27.955Z,57.53
2023-02-16T09:35:08.396Z,60.57
2023-02-16T09:35:48.885Z,65.37
2023-02-16T09:36:52.982Z,61.37
2023-02-16T09:38:50.603Z,59.37
2023-02-16T09:39:32.635Z,58.70
2023-02-16T09:40:21.957Z,60.20
2023-02-16T09:41:37.593Z,59.73
2023-02-16T09:43:33.457Z,60.70
2023-02-16T09:44:53.142Z,60.50
2023-02-16T09:45:53.605Z,61.27
2023-02-16T09:47:52.748Z,60.77
2023-02-16T09:50:06.626Z,58.17
2023-02-16T09:50:54.425Z,60.20
2023-02-16T09:51:38.275Z,58.53
2023-02-16T09:53:15.065Z,58.30
2023-02-16T09:54:32.652Z,61.67
2023-02-16T09:55:20.691Z,60.10
2023-02-16T09:56:15.085Z,59.07
2023-02-16T09:57:24.352Z,59.40
2023-02-16T09:58:07.333Z,59.70
2023-02-16T09:59:24.788Z,63.27
2023-02-16T10:00:58.558Z,62.90
2023-02-16T10:04:17.662Z,59.27
2023-02-16T10:05:12.275Z,58.10
2023-02-16T10:07:18.153Z,58.90
2023-02-16T10:09:13.471Z,61.10
2023-02-16T10:10:32.225Z,60.03
2023-02-16T10:16:21.607Z,57.40
2023-02-16T10:19:20.031Z,58.43
2023-02-16T10:20:18.387Z,56.67
2023-02-16T10:21:17.752Z,56.07
2023-02-16T10:21:57.449Z,58.07
2023-02-16T10:22:40.224Z,58.17
2023-02-16T10:23:50.101Z,69.67
2023-02-16T10:27:18.527Z,54.37
2023-02-16T10:28:08.564Z,53.80
2023-02-16T10:29:17.133Z,54.57
2023-02-16T10:31:12.869Z,56.43
2023-02-16T10:33:23.362Z,67.67
2023-02-16T10:34:21.952Z,59.40
2023-02-16T10:35:20.990Z,57.70
2023-02-16T10:36:10.456Z,55.33
2023-02-16T10:37:47.124Z,54.70
2023-02-16T10:38:43.648Z,56.90
2023-02-16T10:39:32.986Z,51.83
2023-02-16T10:40:33.232Z,52.43
2023-02-16T10:45:17.331Z,50.23
2023-02-16T10:46:42.195Z,50.07
2023-02-16T10:47:30.600Z,50.37
2023-02-16T10:48:16.862Z,50.03
2023-02-16T10:48:59.862Z,49.97
2023-02-16T10:50:07.152Z,52.43
2023-02-16T10:51:11.907Z,51.23
2023-02-16T10:54:04.766Z,51.97
2023-02-16T10:54:44.450Z,49.80
2023-02-16T10:55:23.777Z,51.70
2023-02-16T10:56:24.977Z,50.27
2023-02-16T10:57:25.216Z,53.40
2023-02-16T10:58:21.711Z,53.90
2023-02-16T10:59:47.428Z,53.57
2023-02-16T11:02:29.376Z,56.03
2023-02-16T11:05:29.219Z,55.93
2023-02-16T11:06:17.490Z,57.50
2023-02-16T11:07:19.271Z,56.27
2023-02-16T11:08:01.956Z,57.80
2023-02-16T11:08:58.097Z,57.13
2023-02-16T11:09:39.573Z,55.50
2023-02-16T11:10:23.434Z,56.37
2023-02-16T11:12:38.563Z,59.37
2023-02-16T11:16:56.174Z,63.13
2023-02-16T11:18:00.180Z,60.23
2023-02-16T11:19:25.064Z,64.20
2023-02-16T11:21:52.127Z,59.80
2023-02-16T11:23:40.749Z,59.37
2023-02-16T11:25:37.607Z,59.77
2023-02-16T11:26:17.127Z,59.80
2023-02-16T11:27:24.599Z,59.87
2023-02-16T11:28:25.263Z,60.70
2023-02-16T11:29:19.508Z,57.73
2023-02-16T11:30:22.610Z,57.20
2023-02-16T11:35:28.334Z,57.87
2023-02-16T11:37:40.601Z,56.93
2023-02-16T11:40:09.401Z,56.43
2023-02-16T11:40:52.261Z,57.37
2023-02-16T11:41:59.061Z,54.30
2023-02-16T11:43:18.235Z,54.23
2023-02-16T11:43:58.409Z,53.67
2023-02-16T11:46:18.490Z,54.33
2023-02-16T11:47:43.173Z,53.07
2023-02-16T11:49:44.809Z,52.93
2023-02-16T11:51:05.291Z,50.60
2023-02-16T11:54:27.842Z,49.47
2023-02-16T11:55:07.352Z,49.30
2023-02-16T11:56:25.605Z,48.53
2023-02-16T11:57:11.210Z,46.30
2023-02-16T11:58:24.795Z,46.87
2023-02-16T11:59:24.448Z,47.37
2023-02-16T12:00:52.866Z,44.83
2023-02-16T12:01:58.811Z,43.73
2023-02-16T12:03:08.177Z,44.17
2023-02-16T12:04:37.049Z,42.70
2023-02-16T12:06:27.565Z,44.00
2023-02-16T12:07:24.804Z,43.70
2023-02-16T12:08:24.178Z,41.90
2023-02-16T12:09:25.931Z,41.80
2023-02-16T12:11:30.529Z,39.60
2023-02-16T12:13:07.075Z,40.03
2023-02-16T12:13:46.234Z,39.57
2023-02-16T12:14:41.361Z,40.33
2023-02-16T12:15:44.821Z,42.20
2023-02-16T12:16:24.292Z,44.70
2023-02-16T12:17:28.189Z,42.43
2023-02-16T12:19:26.307Z,43.60
2023-02-16T12:21:52.114Z,46.37
2023-02-16T12:22:48.187Z,46.10
2023-02-16T12:23:59.948Z,45.93
2023-02-16T12:25:12.873Z,46.43
2023-02-16T12:26:36.736Z,47.77
2023-02-16T12:28:31.796Z,43.63
2023-02-16T12:30:31.373Z,44.93
2023-02-16T12:31:48.841Z,44.60
2023-02-16T12:34:08.542Z,42.13
2023-02-16T12:35:07.452Z,40.53
2023-02-16T12:36:36.168Z,41.93
2023-02-16T12:38:05.021Z,41.60
2023-02-16T12:39:09.246Z,40.20
2023-02-16T12:40:13.585Z,40.50
2023-02-16T12:41:19.660Z,41.13
2023-02-16T12:42:59.331Z,40.47
2023-02-16T12:44:32.530Z,42.70
2023-02-16T12:45:23.076Z,43.30
2023-02-16T12:46:03.755Z,41.77
2023-02-16T12:46:48.658Z,42.50
2023-02-16T12:47:54.854Z,42.83
2023-02-16T12:50:02.149Z,41.40
2023-02-16T12:52:12.146Z,43.20
2023-02-16T12:53:20.334Z,43.40
2023-02-16T12:55:15.821Z,43.20
2023-02-16T12:56:04.032Z,46.47
2023-02-16T12:56:59.153Z,44.87
2023-02-16T12:57:49.996Z,43.40
2023-02-16T12:59:22.520Z,44.83
2023-02-16T13:01:28.359Z,44.43
2023-02-16T13:02:07.179Z,44.20
2023-02-16T13:02:56.896Z,43.63
2023-02-16T13:05:46.146Z,45.30
2023-02-16T13:06:57.912Z,43.93
2023-02-16T13:07:36.238Z,45.20
2023-02-16T13:08:49.460Z,44.70
2023-02-16T13:10:23.048Z,41.73
2023-02-16T13:11:17.952Z,42.83
2023-02-16T13:12:10.477Z,43.60
2023-02-16T13:13:17.991Z,43.07
2023-02-16T13:14:46.636Z,42.97
2023-02-16T13:16:05.708Z,41.93
2023-02-16T13:17:18.001Z,40.73
2023-02-16T13:18:05.500Z,40.50
2023-02-16T13:18:49.508Z,42.23
2023-02-16T13:19:29.694Z,44.03
2023-02-16T13:20:33.607Z,43.17
2023-02-16T13:22:01.757Z,44.67
2023-02-16T13:23:44.087Z,44.30
2023-02-16T13:26:36.666Z,44.73
2023-02-16T13:28:59.467Z,44.20
2023-02-16T13:29:39.438Z,43.90
2023-02-16T13:30:37.150Z,44.10
2023-02-16T13:31:40.706Z,46.07
2023-02-16T13:32:54.032Z,45.00
2023-02-16T13:33:45.402Z,44.93
2023-02-16T13:34:24.647Z,45.23
2023-02-16T13:35:25.610Z,43.17
2023-02-16T13:36:23.095Z,44.33
2023-02-16T13:37:20.905Z,45.60
2023-02-16T13:38:19.576Z,45.73
2023-02-16T13:39:49.043Z,46.40
2023-02-16T13:41:06.775Z,43.37
2023-02-16T13:41:47.308Z,45.30
2023-02-16T13:42:39.290Z,44.27
2023-02-16T13:43:56.138Z,44.50
2023-02-16T13:44:45.183Z,43.80
2023-02-16T13:45:29.756Z,43.93
2023-02-16T13:46:36.897Z,46.43
2023-02-16T13:47:26.924Z,46.90
2023-02-16T13:48:24.892Z,45.63